Time;durP1;ratioP1;P1;durP2;ratioP2;P2;SDS_P1;SDS_P2;PMS_P1;PMS_P2;Temp;Humidity;BMP_temperature;BMP_pressure;BME280_temperature;BME280_humidity;BME280_pressure;Samples;Min_cycle;Max_cycle;Signal;HPM_P1;HPM_P2
2023/12/29 00:01:22;;;;;;;8.48;4.28;;;29.30;93.50;;;;;;5063865;28;20025;-72
2023/12/29 00:03:49;;;;;;;5.75;3.78;;;29.50;93.10;;;;;;5067290;28;20024;-71
2023/12/29 00:06:16;;;;;;;8.75;4.07;;;29.40;92.90;;;;;;5057605;28;20028;-71
2023/12/29 00:08:44;;;;;;;7.00;3.92;;;29.10;93.30;;;;;;5057784;28;20059;-72
2023/12/29 00:11:20;;;;;;;9.20;4.05;;;29.10;93.50;;;;;;5056434;28;20101;-71
2023/12/29 00:13:48;;;;;;;12.32;4.47;;;29.20;93.60;;;;;;5063865;28;20043;-72
2023/12/29 00:16:16;;;;;;;10.25;4.47;;;28.90;94.80;;;;;;5066083;28;20052;-71
2023/12/29 00:18:44;;;;;;;8.88;4.38;;;28.90;94.10;;;;;;5061430;28;20041;-72
2023/12/29 00:21:11;;;;;;;9.10;5.07;;;28.90;93.00;;;;;;5057774;28;20111;-73
2023/12/29 00:23:39;;;;;;;10.25;4.82;;;28.80;92.40;;;;;;5051974;28;20036;-72
2023/12/29 00:26:06;;;;;;;7.22;4.60;;;28.60;92.60;;;;;;5056680;28;20037;-72
2023/12/29 00:28:36;;;;;;;9.77;4.90;;;28.80;93.00;;;;;;5051251;28;20029;-72
2023/12/29 00:31:05;;;;;;;11.20;4.88;;;28.90;93.00;;;;;;5058956;28;20032;-69
2023/12/29 00:33:32;;;;;;;8.05;4.43;;;28.80;92.70;;;;;;5055440;28;20373;-68
2023/12/29 00:35:59;;;;;;;8.38;4.75;;;28.80;93.00;;;;;;5051556;28;20040;-68
2023/12/29 00:38:30;;;;;;;8.32;4.78;;;28.90;92.90;;;;;;5058603;28;20071;-68
2023/12/29 00:40:58;;;;;;;11.30;4.82;;;29.10;92.20;;;;;;5052791;28;20033;-70
2023/12/29 00:43:25;;;;;;;9.65;5.10;;;29.10;92.00;;;;;;5062141;28;20409;-68
2023/12/29 00:45:52;;;;;;;7.10;5.20;;;29.00;92.10;;;;;;5059257;28;20036;-69
2023/12/29 00:48:19;;;;;;;8.20;4.68;;;29.00;91.90;;;;;;5059905;28;20358;-68
2023/12/29 00:50:47;;;;;;;7.32;5.40;;;28.90;91.90;;;;;;5057086;28;20033;-69
2023/12/29 00:53:14;;;;;;;9.23;4.40;;;29.10;92.10;;;;;;5056451;28;20082;-68
2023/12/29 00:55:41;;;;;;;7.57;4.47;;;29.10;91.80;;;;;;5054664;28;20047;-69
2023/12/29 00:58:09;;;;;;;7.97;4.30;;;29.10;91.50;;;;;;5036292;28;20551;-69
2023/12/29 01:00:36;;;;;;;8.65;4.50;;;29.20;92.10;;;;;;5056354;28;20017;-69
2023/12/29 01:03:04;;;;;;;7.45;3.90;;;29.50;92.20;;;;;;5062709;28;20025;-68
2023/12/29 01:05:31;;;;;;;6.35;4.53;;;30.00;90.80;;;;;;5057249;28;20025;-68
2023/12/29 01:07:58;;;;;;;6.82;4.72;;;29.90;91.30;;;;;;5051849;28;20041;-68
2023/12/29 01:10:26;;;;;;;7.63;4.18;;;30.00;90.90;;;;;;5036454;28;20064;-68
2023/12/29 01:12:53;;;;;;;8.32;4.72;;;30.20;90.80;;;;;;5053398;28;20028;-66
2023/12/29 01:15:20;;;;;;;6.95;4.05;;;30.20;91.30;;;;;;5058867;28;20024;-69
2023/12/29 01:17:48;;;;;;;7.43;4.28;;;30.10;91.30;;;;;;5056579;28;20059;-69
2023/12/29 01:20:15;;;;;;;6.50;4.07;;;30.10;90.30;;;;;;5047397;28;20021;-68
2023/12/29 01:22:42;;;;;;;7.70;4.35;;;29.80;90.40;;;;;;5057003;28;20497;-69
2023/12/29 01:25:10;;;;;;;6.93;4.55;;;30.00;90.50;;;;;;5040947;28;20264;-69
2023/12/29 01:27:37;;;;;;;5.40;3.90;;;30.30;90.50;;;;;;5058603;28;20474;-68
2023/12/29 01:30:05;;;;;;;7.70;4.60;;;30.90;90.20;;;;;;5056069;28;20035;-68
2023/12/29 01:32:32;;;;;;;6.63;4.03;;;31.40;87.90;;;;;;5035982;28;20030;-69
2023/12/29 01:35:00;;;;;;;8.55;4.38;;;32.00;86.80;;;;;;5052140;28;20453;-69
2023/12/29 01:37:27;;;;;;;7.32;4.13;;;32.60;87.10;;;;;;5037088;28;20032;-68
2023/12/29 01:39:55;;;;;;;5.72;4.18;;;32.40;84.30;;;;;;5054944;28;20033;-67
2023/12/29 01:42:22;;;;;;;9.95;4.05;;;32.00;84.00;;;;;;5053980;28;20012;-68
2023/12/29 01:44:56;;;;;;;6.72;3.03;;;31.40;84.80;;;;;;5050663;28;20114;-68
2023/12/29 01:47:25;;;;;;;7.28;3.03;;;31.50;87.00;;;;;;5050592;28;20981;-68
2023/12/29 01:49:53;;;;;;;9.07;3.58;;;31.20;88.50;;;;;;5048184;28;20124;-68
2023/12/29 01:52:24;;;;;;;4.95;3.40;;;30.70;89.20;;;;;;5056751;28;20031;-68
2023/12/29 01:54:53;;;;;;;6.38;3.28;;;30.40;89.70;;;;;;5053673;28;20024;-68
2023/12/29 01:57:21;;;;;;;6.90;3.90;;;30.10;90.30;;;;;;5056492;28;20020;-68
2023/12/29 01:59:50;;;;;;;10.48;4.18;;;29.90;91.20;;;;;;5050724;28;20116;-68
2023/12/29 02:02:18;;;;;;;8.93;4.07;;;29.90;90.80;;;;;;5049975;28;20037;-69
2023/12/29 02:04:46;;;;;;;6.45;3.88;;;29.70;91.10;;;;;;5053007;28;20358;-69
2023/12/29 02:07:14;;;;;;;11.20;4.45;;;29.70;91.10;;;;;;5048534;28;20111;-69
2023/12/29 02:09:42;;;;;;;9.43;4.20;;;29.70;91.30;;;;;;5054695;28;20053;-68
2023/12/29 02:12:21;;;;;;;9.65;4.28;;;29.60;91.40;;;;;;5031222;28;20041;-68
2023/12/29 02:14:48;;;;;;;6.63;3.67;;;29.90;91.00;;;;;;5055707;28;20424;-68
2023/12/29 02:17:36;;;;;;;6.20;4.25;;;30.00;90.50;;;;;;5059295;28;20094;-68
2023/12/29 02:20:03;;;;;;;;;;;30.00;90.60;;;;;;5043011;28;20049;-68
2023/12/29 02:22:30;;;;;;;8.63;4.05;;;29.80;90.20;;;;;;5058504;28;19913;-68
2023/12/29 02:24:58;;;;;;;6.15;3.90;;;29.70;91.00;;;;;;5063339;28;20041;-68
2023/12/29 02:27:44;;;;;;;7.65;3.92;;;29.50;91.10;;;;;;5040048;28;20126;-69
2023/12/29 02:30:26;;;;;;;8.38;3.45;;;29.30;91.20;;;;;;5063640;28;20041;-68
2023/12/29 02:32:58;;;;;;;8.13;3.70;;;29.30;91.60;;;;;;5060062;28;20453;-68
2023/12/29 02:35:32;;;;;;;7.80;3.58;;;29.20;91.40;;;;;;5043097;28;20068;-67
2023/12/29 02:38:01;;;;;;;7.93;3.30;;;29.20;91.30;;;;;;5041364;28;20111;-68
2023/12/29 02:40:30;;;;;;;7.57;3.45;;;29.10;91.20;;;;;;5065676;28;20381;-68
2023/12/29 02:43:04;;;;;;;7.00;3.90;;;29.10;91.30;;;;;;5062448;28;20058;-67
2023/12/29 02:45:32;;;;;;;6.97;3.50;;;29.10;91.40;;;;;;5059848;28;20462;-66
2023/12/29 02:48:06;;;;;;;9.27;3.38;;;29.20;91.40;;;;;;5058060;28;20107;-68
2023/12/29 02:50:34;;;;;;;8.48;3.35;;;29.20;91.70;;;;;;5056798;28;20032;-68
2023/12/29 02:53:01;;;;;;;6.00;3.42;;;29.30;91.70;;;;;;5056748;28;20522;-68
2023/12/29 02:55:29;;;;;;;5.72;3.25;;;29.40;91.60;;;;;;5053670;28;20564;-68
2023/12/29 02:57:57;;;;;;;10.82;3.20;;;29.60;90.90;;;;;;5062948;28;20020;-68
2023/12/29 03:00:26;;;;;;;8.68;3.67;;;29.80;90.50;;;;;;5060922;28;20711;-68
2023/12/29 03:02:53;;;;;;;8.38;3.20;;;29.80;90.50;;;;;;5069838;28;20469;-68
2023/12/29 03:05:27;;;;;;;10.80;3.10;;;29.80;90.40;;;;;;5059360;28;20037;-68
2023/12/29 03:07:55;;;;;;;7.78;3.28;;;29.80;90.60;;;;;;5066320;28;20032;-68
2023/12/29 03:10:23;;;;;;;7.45;3.30;;;30.00;91.10;;;;;;5057918;28;20029;-68
2023/12/29 03:12:51;;;;;;;10.27;3.67;;;30.40;90.50;;;;;;5054943;28;20048;-68
2023/12/29 03:15:21;;;;;;;8.98;3.80;;;30.70;90.00;;;;;;5055999;28;20065;-68
2023/12/29 03:17:49;;;;;;;6.25;3.63;;;30.60;90.50;;;;;;5054432;28;20461;-68
2023/12/29 03:20:17;;;;;;;9.63;3.60;;;30.40;91.30;;;;;;5056432;28;20072;-68
2023/12/29 03:22:44;;;;;;;12.75;4.20;;;30.50;90.50;;;;;;5032610;28;20172;-68
2023/12/29 03:25:15;;;;;;;8.45;3.38;;;30.60;89.50;;;;;;5063698;28;20077;-68
2023/12/29 03:27:45;;;;;;;6.85;3.17;;;30.70;89.60;;;;;;5056139;28;20361;-68
2023/12/29 03:30:17;;;;;;;6.70;3.00;;;30.40;90.20;;;;;;5051703;28;20048;-68
2023/12/29 03:32:53;;;;;;;13.80;3.42;;;30.40;89.80;;;;;;5055666;28;20025;-67
2023/12/29 03:35:21;;;;;;;7.07;3.15;;;30.40;90.10;;;;;;5055457;28;20090;-68
2023/12/29 03:37:50;;;;;;;12.20;2.83;;;30.30;90.00;;;;;;5056273;28;20049;-67
2023/12/29 03:40:18;;;;;;;14.02;2.58;;;30.10;91.10;;;;;;5038087;28;20132;-67
2023/12/29 03:42:53;;;;;;;11.95;2.78;;;29.80;91.80;;;;;;5054161;28;20042;-68
2023/12/29 03:45:21;;;;;;;12.00;2.97;;;29.50;92.50;;;;;;5057904;28;20072;-68
2023/12/29 03:47:48;;;;;;;13.90;2.88;;;29.40;93.00;;;;;;5058607;28;20539;-68
2023/12/29 03:50:20;;;;;;;12.48;2.75;;;29.30;93.00;;;;;;5057204;28;20512;-68
2023/12/29 03:52:48;;;;;;;10.65;2.58;;;29.20;92.70;;;;;;5045987;28;20052;-68
2023/12/29 03:55:17;;;;;;;10.27;2.92;;;29.10;93.40;;;;;;5059681;28;20052;-67
2023/12/29 03:57:46;;;;;;;11.75;2.72;;;29.00;93.30;;;;;;5053812;28;20024;-67
2023/12/29 04:00:17;;;;;;;13.13;3.60;;;28.90;93.80;;;;;;5051428;28;20116;-67
2023/12/29 04:02:44;;;;;;;8.93;2.42;;;29.00;93.60;;;;;;5056998;28;20056;-67
2023/12/29 04:05:12;;;;;;;10.85;2.70;;;28.80;93.60;;;;;;5055502;28;20044;-67
2023/12/29 04:07:44;;;;;;;19.60;3.15;;;28.80;93.60;;;;;;5021105;28;20179;-68
2023/12/29 04:10:11;;;;;;;12.30;3.53;;;28.90;93.70;;;;;;5041268;28;20040;-68
2023/12/29 04:12:39;;;;;;;13.85;2.45;;;28.90;93.60;;;;;;5040892;28;20458;-68
2023/12/29 04:15:07;;;;;;;12.82;2.45;;;28.80;93.90;;;;;;5059404;28;20111;-68
2023/12/29 04:17:36;;;;;;;11.95;2.72;;;28.70;94.10;;;;;;5055431;28;20033;-68
2023/12/29 04:20:04;;;;;;;12.13;2.65;;;28.70;94.10;;;;;;5053057;28;20117;-67
2023/12/29 04:22:36;;;;;;;11.82;2.83;;;28.60;94.10;;;;;;5057280;28;20067;-68
2023/12/29 04:25:05;;;;;;;14.00;2.70;;;28.40;94.40;;;;;;5038334;28;20373;-67
2023/12/29 04:27:33;;;;;;;17.45;2.92;;;28.10;94.90;;;;;;5032818;28;20060;-68
2023/12/29 04:30:01;;;;;;;16.83;3.20;;;28.00;95.10;;;;;;5053692;28;20037;-67
2023/12/29 04:32:28;;;;;;;17.00;3.17;;;27.90;95.60;;;;;;5044779;28;20036;-68
2023/12/29 04:34:56;;;;;;;12.90;2.50;;;27.90;95.60;;;;;;5057267;28;20103;-68
2023/12/29 04:37:24;;;;;;;9.95;2.58;;;28.00;95.90;;;;;;5050815;28;20074;-67
2023/12/29 04:39:51;;;;;;;15.98;2.70;;;28.10;95.70;;;;;;5052564;28;20029;-67
2023/12/29 04:42:18;;;;;;;16.20;3.08;;;28.00;96.50;;;;;;5056495;28;20120;-68
2023/12/29 04:44:46;;;;;;;13.82;2.88;;;28.00;96.60;;;;;;5052057;28;20105;-67
2023/12/29 04:47:13;;;;;;;15.63;2.97;;;28.20;96.20;;;;;;5053563;28;20029;-68
2023/12/29 04:49:41;;;;;;;16.48;3.03;;;28.70;96.10;;;;;;5053807;28;20032;-68
2023/12/29 04:52:09;;;;;;;13.88;2.30;;;29.10;95.90;;;;;;5049962;28;20072;-67
2023/12/29 04:54:36;;;;;;;13.82;2.70;;;29.20;94.50;;;;;;5050662;28;20037;-69
2023/12/29 04:57:04;;;;;;;10.63;2.65;;;29.10;94.50;;;;;;5049530;28;20544;-68
2023/12/29 04:59:32;;;;;;;13.50;3.00;;;29.10;94.70;;;;;;5050096;28;20083;-68
2023/12/29 05:01:59;;;;;;;17.35;2.83;;;29.10;94.50;;;;;;5047565;28;20036;-68
2023/12/29 05:04:26;;;;;;;15.90;2.78;;;29.00;94.50;;;;;;5048189;28;20459;-69
2023/12/29 05:06:53;;;;;;;12.55;3.13;;;28.70;94.80;;;;;;5050339;28;20198;-69
2023/12/29 05:09:21;;;;;;;20.75;3.17;;;28.50;95.30;;;;;;5051132;28;20048;-69
2023/12/29 05:11:48;;;;;;;16.08;2.97;;;28.40;95.90;;;;;;5054267;28;20029;-70
2023/12/29 05:14:16;;;;;;;15.80;2.70;;;28.40;95.60;;;;;;5050204;28;20028;-70
2023/12/29 05:16:43;;;;;;;15.05;2.53;;;28.50;95.30;;;;;;5065722;28;20107;-69
2023/12/29 05:19:11;;;;;;;15.27;3.03;;;28.60;95.40;;;;;;5054819;28;20076;-70
2023/12/29 05:21:38;;;;;;;17.40;3.42;;;28.60;95.20;;;;;;5063604;28;20036;-69
2023/12/29 05:24:06;;;;;;;17.83;3.47;;;28.50;95.10;;;;;;5056452;28;20535;-69
2023/12/29 05:26:33;;;;;;;14.32;3.00;;;28.60;95.60;;;;;;5050907;28;20036;-70
2023/12/29 05:29:00;;;;;;;15.80;2.88;;;28.40;95.80;;;;;;5051396;28;20032;-69
2023/12/29 05:31:28;;;;;;;12.13;2.72;;;28.20;96.00;;;;;;5058781;28;20387;-69
2023/12/29 05:33:56;;;;;;;11.90;2.85;;;28.10;96.10;;;;;;5060363;28;20032;-69
2023/12/29 05:36:23;;;;;;;14.98;2.80;;;28.00;96.30;;;;;;5056786;28;20033;-68
2023/12/29 05:38:51;;;;;;;17.63;3.30;;;28.20;96.30;;;;;;5054165;28;20127;-69
2023/12/29 05:41:20;;;;;;;9.75;2.80;;;28.30;96.20;;;;;;5056979;28;20540;-68
2023/12/29 05:43:47;;;;;;;15.88;2.97;;;28.30;96.10;;;;;;5051581;28;20033;-69
2023/12/29 05:46:15;;;;;;;13.43;2.85;;;28.40;96.30;;;;;;5056889;28;20032;-69
2023/12/29 05:48:42;;;;;;;15.05;2.85;;;28.70;95.40;;;;;;5055008;28;20033;-69
2023/12/29 05:51:10;;;;;;;11.45;2.72;;;28.80;95.50;;;;;;5052497;28;20076;-68
2023/12/29 05:53:40;;;;;;;12.73;3.03;;;28.70;95.50;;;;;;5060117;28;20028;-69
2023/12/29 05:56:07;;;;;;;14.63;3.28;;;28.70;95.30;;;;;;5057943;28;20095;-69
2023/12/29 05:58:34;;;;;;;13.15;2.42;;;28.80;95.40;;;;;;5051609;28;20461;-69
2023/12/29 06:01:02;;;;;;;10.50;2.30;;;28.50;95.50;;;;;;5056863;28;20044;-69
2023/12/29 06:03:29;;;;;;;14.38;2.92;;;28.60;95.70;;;;;;5056156;28;20165;-69
2023/12/29 06:05:57;;;;;;;13.10;2.85;;;28.70;95.30;;;;;;5055059;28;20055;-69
2023/12/29 06:08:24;;;;;;;15.80;3.33;;;28.80;95.20;;;;;;5054935;28;20056;-68
2023/12/29 06:10:51;;;;;;;13.55;2.90;;;28.80;95.30;;;;;;5060126;28;20021;-68
2023/12/29 06:13:19;;;;;;;13.50;2.75;;;28.30;96.10;;;;;;5056160;28;20405;-68
2023/12/29 06:15:46;;;;;;;15.73;2.80;;;28.10;96.30;;;;;;5055396;28;20028;-68
2023/12/29 06:18:13;;;;;;;15.52;2.72;;;28.30;96.10;;;;;;5052886;28;20029;-68
2023/12/29 06:20:40;;;;;;;14.23;2.90;;;28.20;96.00;;;;;;5049229;28;20017;-68
2023/12/29 06:23:08;;;;;;;14.20;2.67;;;28.10;96.20;;;;;;5047402;28;20043;-68
2023/12/29 06:25:35;;;;;;;12.73;3.40;;;27.90;96.50;;;;;;5064572;28;20036;-68
2023/12/29 06:28:06;;;;;;;13.25;2.88;;;27.70;97.10;;;;;;5049960;28;20574;-68
2023/12/29 06:30:33;;;;;;;11.95;2.80;;;27.50;96.90;;;;;;5037465;28;20133;-69
2023/12/29 06:33:01;;;;;;;15.38;2.72;;;27.30;97.20;;;;;;5059395;28;20438;-68
2023/12/29 06:35:28;;;;;;;13.73;2.88;;;27.30;97.30;;;;;;5053762;28;20039;-68
2023/12/29 06:37:55;;;;;;;15.02;3.35;;;27.20;97.60;;;;;;5049941;28;20021;-68
2023/12/29 06:40:22;;;;;;;16.70;3.83;;;27.10;98.00;;;;;;5062551;28;20436;-68
2023/12/29 06:42:50;;;;;;;12.23;2.42;;;27.30;98.50;;;;;;5056312;28;20029;-68
2023/12/29 06:45:17;;;;;;;16.02;3.10;;;27.40;98.10;;;;;;5052320;28;20026;-67
2023/12/29 06:47:44;;;;;;;8.93;2.72;;;27.60;98.30;;;;;;5049434;28;20039;-68
2023/12/29 06:50:12;;;;;;;10.07;2.63;;;27.60;98.60;;;;;;5056972;28;20439;-68
2023/12/29 06:52:40;;;;;;;14.13;3.17;;;27.50;99.00;;;;;;5061424;28;20080;-68
2023/12/29 06:55:08;;;;;;;16.35;3.58;;;27.40;99.00;;;;;;5053552;28;20074;-68
2023/12/29 06:57:36;;;;;;;10.68;2.88;;;27.40;98.80;;;;;;5064084;28;20021;-68
2023/12/29 07:00:04;;;;;;;17.23;2.90;;;27.20;98.80;;;;;;5058256;28;20029;-68
2023/12/29 07:02:32;;;;;;;14.02;2.53;;;26.90;99.10;;;;;;5055712;28;20362;-67
2023/12/29 07:04:59;;;;;;;5.45;1.70;;;26.90;98.60;;;;;;5055396;28;20410;-67
2023/12/29 07:07:26;;;;;;;3.40;1.00;;;26.60;96.00;;;;;;5054320;28;20032;-68
2023/12/29 07:09:53;;;;;;;6.68;1.35;;;26.60;91.10;;;;;;5055314;28;20045;-67
2023/12/29 07:12:21;;;;;;;5.78;1.10;;;26.50;92.80;;;;;;5063034;28;20450;-67
2023/12/29 07:14:48;;;;;;;3.97;1.40;;;26.50;92.40;;;;;;5053181;28;20029;-68
2023/12/29 07:17:16;;;;;;;7.32;1.85;;;26.40;92.60;;;;;;5054312;28;20111;-67
2023/12/29 07:19:43;;;;;;;4.88;1.38;;;26.40;92.50;;;;;;5062246;28;20049;-67
2023/12/29 07:22:10;;;;;;;5.47;1.10;;;26.40;92.80;;;;;;5055805;28;20416;-67
2023/12/29 07:24:38;;;;;;;2.53;0.90;;;26.50;92.40;;;;;;5055462;28;20493;-67
2023/12/29 07:27:07;;;;;;;4.97;1.20;;;26.50;92.00;;;;;;5049066;28;20056;-67
2023/12/29 07:29:35;;;;;;;4.55;0.80;;;26.50;91.50;;;;;;5052452;28;20108;-69
2023/12/29 07:32:02;;;;;;;6.63;1.40;;;26.50;91.70;;;;;;5049766;28;20021;-69
2023/12/29 07:34:31;;;;;;;3.58;0.90;;;26.60;91.00;;;;;;5054486;28;20029;-69
2023/12/29 07:36:58;;;;;;;3.13;1.10;;;26.60;91.20;;;;;;5055227;28;20021;-69
2023/12/29 07:39:26;;;;;;;4.00;0.80;;;26.60;90.60;;;;;;5056171;28;20140;-69
2023/12/29 07:41:53;;;;;;;1.88;0.57;;;26.60;89.50;;;;;;5057755;28;20035;-69
2023/12/29 07:44:20;;;;;;;2.30;0.55;;;26.60;89.00;;;;;;5033566;28;20443;-69
2023/12/29 07:46:48;;;;;;;2.15;0.68;;;26.60;87.90;;;;;;5056801;28;20128;-69
2023/12/29 07:49:15;;;;;;;3.35;0.47;;;26.60;86.90;;;;;;5059734;28;20024;-69
2023/12/29 07:51:45;;;;;;;1.10;0.43;;;26.50;88.00;;;;;;5037690;28;20037;-69
2023/12/29 07:54:12;;;;;;;1.15;0.70;;;26.60;85.10;;;;;;5056217;28;20036;-69
2023/12/29 07:56:40;;;;;;;2.67;0.50;;;26.70;83.90;;;;;;5034349;28;20029;-69
2023/12/29 07:59:07;;;;;;;1.10;0.57;;;26.60;85.60;;;;;;5054094;28;20036;-70
2023/12/29 08:01:36;;;;;;;1.10;0.50;;;26.60;83.70;;;;;;5052527;28;20676;-66
2023/12/29 08:04:04;;;;;;;0.98;0.40;;;26.50;85.10;;;;;;5052597;28;20021;-68
2023/12/29 08:06:31;;;;;;;1.65;0.50;;;26.40;85.40;;;;;;5058823;28;20036;-69
2023/12/29 08:08:59;;;;;;;0.52;0.38;;;26.40;84.50;;;;;;5063228;28;20051;-68
2023/12/29 08:11:26;;;;;;;0.82;0.30;;;26.40;84.00;;;;;;5053065;28;20107;-68
2023/12/29 08:13:55;;;;;;;2.78;0.50;;;26.40;83.80;;;;;;5054500;28;20104;-67
2023/12/29 08:16:22;;;;;;;1.15;0.40;;;26.40;85.40;;;;;;5047376;28;20415;-67
2023/12/29 08:18:50;;;;;;;0.63;0.30;;;26.40;83.70;;;;;;5048108;28;20083;-67
2023/12/29 08:21:19;;;;;;;0.68;0.40;;;26.60;81.50;;;;;;5051037;28;20344;-68
2023/12/29 08:23:47;;;;;;;1.75;0.50;;;26.50;82.10;;;;;;5050699;28;20028;-67
2023/12/29 08:26:15;;;;;;;0.47;0.30;;;26.40;83.30;;;;;;5052268;28;20033;-68
2023/12/29 08:28:42;;;;;;;1.17;0.38;;;26.30;84.10;;;;;;5048747;28;20733;-67
2023/12/29 08:31:10;;;;;;;0.82;0.40;;;26.30;83.40;;;;;;5052399;28;20033;-67
2023/12/29 08:33:37;;;;;;;3.42;0.50;;;26.30;84.00;;;;;;5053511;28;20033;-68
2023/12/29 08:36:06;;;;;;;1.08;0.40;;;26.20;85.10;;;;;;5052216;28;20027;-66
2023/12/29 08:38:33;;;;;;;4.82;0.50;;;26.10;85.20;;;;;;5056441;28;20044;-68
2023/12/29 08:41:01;;;;;;;1.25;0.50;;;26.10;85.90;;;;;;5055081;28;20029;-67
2023/12/29 08:43:28;;;;;;;2.22;0.50;;;26.10;86.20;;;;;;5061935;28;20025;-67
2023/12/29 08:45:56;;;;;;;1.90;0.38;;;26.10;86.80;;;;;;5059058;28;20061;-67
2023/12/29 08:48:25;;;;;;;1.45;0.40;;;26.10;86.60;;;;;;5058023;28;20021;-67
2023/12/29 08:50:53;;;;;;;0.50;0.40;;;26.10;86.60;;;;;;5055404;28;20470;-67
2023/12/29 08:53:20;;;;;;;1.35;0.60;;;26.10;85.40;;;;;;5052834;28;20025;-67
2023/12/29 08:55:48;;;;;;;1.20;0.73;;;26.20;82.60;;;;;;5058276;28;20102;-68
2023/12/29 08:58:15;;;;;;;1.67;0.80;;;26.10;85.40;;;;;;5041091;28;20386;-68
2023/12/29 09:00:43;;;;;;;0.90;0.47;;;26.20;83.20;;;;;;5055353;28;20029;-68
2023/12/29 09:03:10;;;;;;;1.38;0.65;;;26.20;83.00;;;;;;5053069;28;20029;-68
2023/12/29 09:05:38;;;;;;;1.65;0.60;;;25.80;83.80;;;;;;5054799;28;20029;-69
2023/12/29 09:08:06;;;;;;;1.20;0.70;;;25.60;84.50;;;;;;5053835;28;20122;-68
2023/12/29 09:10:33;;;;;;;2.38;0.52;;;25.40;85.50;;;;;;5035028;28;20376;-68
2023/12/29 09:13:01;;;;;;;1.52;0.40;;;25.60;83.20;;;;;;5042895;28;20132;-68
2023/12/29 09:15:28;;;;;;;3.30;0.40;;;25.60;83.50;;;;;;5061485;28;20028;-68
2023/12/29 09:17:56;;;;;;;0.70;0.32;;;25.60;81.00;;;;;;5053759;28;20028;-68
2023/12/29 09:20:23;;;;;;;0.70;0.30;;;25.60;80.20;;;;;;5037867;28;20040;-68
2023/12/29 09:22:51;;;;;;;1.02;0.60;;;25.60;80.50;;;;;;5057148;28;20050;-69
2023/12/29 09:25:19;;;;;;;1.05;0.40;;;25.60;79.30;;;;;;5052976;28;20462;-69
2023/12/29 09:27:49;;;;;;;0.35;0.30;;;25.50;79.50;;;;;;5055215;28;20116;-70
2023/12/29 09:30:16;;;;;;;0.55;0.40;;;25.40;79.60;;;;;;5057513;28;20057;-69
2023/12/29 09:32:44;;;;;;;0.82;0.47;;;25.10;79.70;;;;;;5050339;28;20500;-70
2023/12/29 09:35:11;;;;;;;2.70;0.57;;;24.90;81.60;;;;;;5062350;28;20469;-69
2023/12/29 09:37:38;;;;;;;1.00;0.40;;;25.10;80.90;;;;;;5055062;28;20486;-70
2023/12/29 09:40:07;;;;;;;2.47;0.90;;;25.20;79.60;;;;;;5045427;28;20836;-69
2023/12/29 09:42:35;;;;;;;1.58;0.50;;;25.30;78.70;;;;;;5050919;28;20033;-69
2023/12/29 09:45:07;;;;;;;2.35;0.40;;;25.20;79.10;;;;;;5050170;28;20037;-69
2023/12/29 09:47:38;;;;;;;1.33;0.32;;;25.20;78.60;;;;;;5050158;28;20025;-68
2023/12/29 09:50:11;;;;;;;0.85;0.38;;;25.30;77.20;;;;;;5047774;28;20071;-69
2023/12/29 09:52:40;;;;;;;0.35;0.28;;;25.30;77.30;;;;;;5048989;28;20108;-68
2023/12/29 09:55:11;;;;;;;0.75;0.43;;;25.20;77.60;;;;;;5053176;28;20110;-68
2023/12/29 09:57:39;;;;;;;0.50;0.30;;;25.20;76.90;;;;;;5052404;28;21144;-68
2023/12/29 10:00:10;;;;;;;0.65;0.30;;;25.20;77.20;;;;;;5063361;28;20045;-68
2023/12/29 10:02:38;;;;;;;0.82;0.40;;;25.10;76.20;;;;;;5056470;28;20052;-68
2023/12/29 10:05:06;;;;;;;1.27;0.60;;;25.10;76.40;;;;;;5065455;28;20072;-68
2023/12/29 10:07:40;;;;;;;1.23;0.80;;;25.10;76.10;;;;;;5057682;28;20029;-68
2023/12/29 10:10:08;;;;;;;0.63;0.30;;;25.10;76.00;;;;;;5065918;28;20480;-69
2023/12/29 10:12:37;;;;;;;0.50;0.40;;;25.00;76.10;;;;;;5065466;28;20029;-68
2023/12/29 10:15:13;;;;;;;0.95;0.50;;;25.10;76.20;;;;;;5057590;28;20039;-68
2023/12/29 10:17:59;;;;;;;0.52;0.43;;;25.00;76.30;;;;;;5059069;28;20041;-68
2023/12/29 10:20:50;;;;;;;2.42;0.40;;;25.00;76.20;;;;;;5061890;28;20381;-69
2023/12/29 10:23:23;;;;;;;0.82;0.40;;;24.90;76.20;;;;;;5055741;28;20029;-68
2023/12/29 10:25:52;;;;;;;0.30;0.30;;;24.90;75.40;;;;;;5055345;28;20374;-68
2023/12/29 10:28:19;;;;;;;0.60;0.40;;;25.00;75.70;;;;;;5055490;28;20142;-69
2023/12/29 10:30:47;;;;;;;0.60;0.47;;;24.80;76.20;;;;;;5037716;28;20028;-68
2023/12/29 10:33:26;;;;;;;0.85;0.40;;;24.90;76.20;;;;;;5052519;28;20032;-68
2023/12/29 10:36:02;;;;;;;0.40;0.32;;;24.90;76.30;;;;;;5052829;28;20032;-68
2023/12/29 10:38:30;;;;;;;0.27;0.20;;;24.80;76.50;;;;;;5056762;28;20045;-68
2023/12/29 10:41:18;;;;;;;0.50;0.40;;;24.80;76.80;;;;;;5057692;28;20029;-68
2023/12/29 10:43:51;;;;;;;1.75;0.57;;;24.80;77.00;;;;;;5061081;28;20107;-68
2023/12/29 10:46:20;;;;;;;1.05;0.50;;;24.70;76.60;;;;;;5041089;28;20029;-68
2023/12/29 10:48:48;;;;;;;0.30;0.20;;;24.80;76.40;;;;;;5052767;28;20147;-68
2023/12/29 10:51:15;;;;;;;0.95;0.20;;;24.70;76.10;;;;;;5047719;28;20021;-68
2023/12/29 10:53:55;;;;;;;0.32;0.22;;;24.80;75.90;;;;;;5035378;28;20043;-68
2023/12/29 10:56:22;;;;;;;0.32;0.28;;;24.70;75.90;;;;;;5059503;28;20470;-69
2023/12/29 10:59:03;;;;;;;0.82;0.38;;;24.80;75.50;;;;;;5056925;28;20075;-67
2023/12/29 11:01:35;;;;;;;0.40;0.30;;;24.80;75.60;;;;;;5056403;28;20467;-67
2023/12/29 11:04:07;;;;;;;0.43;0.20;;;24.80;75.60;;;;;;5057473;28;20384;-68
2023/12/29 11:06:47;;;;;;;0.43;0.30;;;24.80;75.50;;;;;;5058562;28;20036;-68
2023/12/29 11:09:14;;;;;;;0.32;0.30;;;24.70;75.20;;;;;;5059472;28;20048;-67
2023/12/29 11:11:43;;;;;;;1.95;0.30;;;24.70;75.50;;;;;;5056093;28;20048;-68
2023/12/29 11:14:11;;;;;;;0.63;0.20;;;24.70;75.40;;;;;;5062743;28;20055;-68
2023/12/29 11:16:39;;;;;;;0.60;0.43;;;24.70;75.20;;;;;;5067154;28;20029;-69
2023/12/29 11:19:12;;;;;;;0.52;0.20;;;24.80;75.10;;;;;;5055903;28;20162;-68
2023/12/29 11:21:42;;;;;;;1.45;0.30;;;24.80;75.10;;;;;;5058017;28;20063;-69
2023/12/29 11:24:09;;;;;;;0.50;0.20;;;24.80;75.20;;;;;;5060469;28;20052;-69
2023/12/29 11:26:38;;;;;;;0.55;0.20;;;24.70;75.20;;;;;;5057827;28;20021;-69
2023/12/29 11:29:06;;;;;;;0.52;0.22;;;24.70;76.00;;;;;;5056214;28;20017;-68
2023/12/29 11:31:34;;;;;;;0.93;0.30;;;24.80;74.90;;;;;;5056775;28;20170;-69
2023/12/29 11:34:16;;;;;;;1.65;0.30;;;24.80;74.70;;;;;;5053154;28;20048;-68
2023/12/29 11:36:47;;;;;;;1.08;0.28;;;24.70;74.70;;;;;;5057045;28;20505;-69
2023/12/29 11:39:44;;;;;;;0.95;0.47;;;24.70;75.00;;;;;;5054736;28;20044;-68
2023/12/29 11:42:34;;;;;;;2.35;0.40;;;24.60;75.60;;;;;;5055618;28;20056;-68
2023/12/29 11:45:36;;;;;;;1.75;0.40;;;24.60;75.60;;;;;;5053288;28;20060;-68
2023/12/29 11:48:04;;;;;;;0.25;0.25;;;24.60;75.80;;;;;;5057301;28;20029;-67
2023/12/29 11:50:38;;;;;;;1.45;0.30;;;24.40;76.10;;;;;;5038608;28;20036;-69
2023/12/29 11:53:05;;;;;;;0.52;0.20;;;24.50;76.20;;;;;;5054091;28;20033;-68
2023/12/29 11:55:37;;;;;;;0.63;0.20;;;24.50;76.50;;;;;;5054619;28;20454;-68
2023/12/29 11:58:28;;;;;;;1.40;0.40;;;24.40;76.70;;;;;;5050892;28;20978;-68
2023/12/29 12:00:56;;;;;;;0.63;0.20;;;24.30;77.00;;;;;;5053484;28;20037;-69
2023/12/29 12:03:28;;;;;;;1.00;0.40;;;24.30;77.40;;;;;;5058718;28;20025;-68
2023/12/29 12:05:58;;;;;;;1.00;0.17;;;24.40;76.50;;;;;;5057034;28;20083;-67
2023/12/29 12:08:35;;;;;;;0.77;0.30;;;24.20;76.90;;;;;;5060394;28;20723;-68
2023/12/29 12:11:31;;;;;;;0.65;0.30;;;24.30;76.80;;;;;;5057599;28;20531;-68
2023/12/29 12:13:59;;;;;;;3.50;0.60;;;24.40;76.70;;;;;;5054776;28;20055;-68
2023/12/29 12:16:52;;;;;;;1.05;0.40;;;24.10;77.60;;;;;;5059546;28;20028;-68
2023/12/29 12:19:24;;;;;;;0.52;0.30;;;24.00;77.40;;;;;;5056170;28;20040;-68
2023/12/29 12:21:55;;;;;;;2.92;0.47;;;24.10;78.80;;;;;;5036825;28;20090;-67
2023/12/29 12:24:23;;;;;;;0.65;0.30;;;23.80;78.50;;;;;;5060551;28;20029;-68
2023/12/29 12:26:50;;;;;;;0.85;0.30;;;23.70;80.20;;;;;;5054215;28;20029;-67
2023/12/29 12:29:19;;;;;;;1.83;0.40;;;23.60;80.10;;;;;;5055682;28;20021;-68
2023/12/29 12:31:57;;;;;;;0.68;0.30;;;23.50;80.60;;;;;;5053794;28;20021;-67
2023/12/29 12:34:26;;;;;;;0.30;0.13;;;23.40;81.00;;;;;;5052566;28;20033;-68
2023/12/29 12:36:59;;;;;;;1.58;0.40;;;23.30;81.50;;;;;;5058128;28;20497;-67
2023/12/29 12:39:40;;;;;;;0.30;0.20;;;23.30;82.20;;;;;;5060533;28;20033;-67
2023/12/29 12:42:07;;;;;;;0.60;0.40;;;23.20;81.70;;;;;;5054914;28;20081;-67
2023/12/29 12:44:35;;;;;;;0.40;0.30;;;23.10;81.50;;;;;;5058055;28;20112;-67
2023/12/29 12:47:09;;;;;;;0.40;0.40;;;23.10;82.70;;;;;;5056541;28;20040;-67
2023/12/29 12:49:37;;;;;;;1.45;0.40;;;23.00;83.90;;;;;;5059758;28;20057;-66
2023/12/29 12:52:05;;;;;;;0.50;0.30;;;23.00;84.10;;;;;;5054496;28;20040;-66
2023/12/29 12:54:33;;;;;;;1.40;0.40;;;23.00;85.70;;;;;;5035822;28;20040;-68